sensor_id;sensor_type;location;lat;lon;timestamp;P1;durP1;ratioP1;P2;durP2;ratioP2
25331;SDS011;13284;52.748;13.452;2022-11-20T00:00:49;7.60;;;4.80;;
25331;SDS011;13284;52.748;13.452;2022-11-20T00:03:15;7.37;;;5.43;;
25331;SDS011;13284;52.748;13.452;2022-11-20T00:05:40;6.67;;;4.70;;
25331;SDS011;13284;52.748;13.452;2022-11-20T00:08:06;7.20;;;5.53;;
25331;SDS011;13284;52.748;13.452;2022-11-20T00:10:31;10.67;;;5.83;;
25331;SDS011;13284;52.748;13.452;2022-11-20T00:12:57;6.70;;;5.80;;
25331;SDS011;13284;52.748;13.452;2022-11-20T00:15:23;6.63;;;4.63;;
25331;SDS011;13284;52.748;13.452;2022-11-20T00:17:49;9.47;;;5.17;;
25331;SDS011;13284;52.748;13.452;2022-11-20T00:20:15;7.90;;;5.90;;
25331;SDS011;13284;52.748;13.452;2022-11-20T00:22:40;6.60;;;5.30;;
25331;SDS011;13284;52.748;13.452;2022-11-20T00:25:06;7.80;;;5.93;;
25331;SDS011;13284;52.748;13.452;2022-11-20T00:27:32;7.67;;;5.07;;
25331;SDS011;13284;52.748;13.452;2022-11-20T00:29:57;8.07;;;5.17;;
25331;SDS011;13284;52.748;13.452;2022-11-20T00:32:23;8.77;;;5.10;;
25331;SDS011;13284;52.748;13.452;2022-11-20T00:34:49;10.00;;;6.30;;
25331;SDS011;13284;52.748;13.452;2022-11-20T00:37:14;8.27;;;5.90;;
25331;SDS011;13284;52.748;13.452;2022-11-20T00:39:40;8.53;;;4.47;;
25331;SDS011;13284;52.748;13.452;2022-11-20T00:42:05;8.60;;;5.20;;
25331;SDS011;13284;52.748;13.452;2022-11-20T00:44:31;9.83;;;6.57;;
25331;SDS011;13284;52.748;13.452;2022-11-20T00:46:56;10.03;;;6.17;;
25331;SDS011;13284;52.748;13.452;2022-11-20T00:49:22;8.67;;;5.63;;
25331;SDS011;13284;52.748;13.452;2022-11-20T00:51:47;9.70;;;5.60;;
25331;SDS011;13284;52.748;13.452;2022-11-20T00:54:13;5.63;;;4.43;;
25331;SDS011;13284;52.748;13.452;2022-11-20T00:56:38;9.90;;;6.23;;
25331;SDS011;13284;52.748;13.452;2022-11-20T00:59:04;9.00;;;5.93;;
25331;SDS011;13284;52.748;13.452;2022-11-20T01:01:30;7.87;;;5.13;;
25331;SDS011;13284;52.748;13.452;2022-11-20T01:03:57;8.67;;;5.63;;
25331;SDS011;13284;52.748;13.452;2022-11-20T01:06:25;9.43;;;5.90;;
25331;SDS011;13284;52.748;13.452;2022-11-20T01:08:57;8.83;;;5.70;;
25331;SDS011;13284;52.748;13.452;2022-11-20T01:11:28;9.93;;;4.97;;
25331;SDS011;13284;52.748;13.452;2022-11-20T01:13:56;6.80;;;5.80;;
25331;SDS011;13284;52.748;13.452;2022-11-20T01:16:30;8.40;;;4.87;;
25331;SDS011;13284;52.748;13.452;2022-11-20T01:19:00;7.90;;;6.30;;
25331;SDS011;13284;52.748;13.452;2022-11-20T01:21:28;9.87;;;6.63;;
25331;SDS011;13284;52.748;13.452;2022-11-20T01:23:55;10.00;;;5.87;;
25331;SDS011;13284;52.748;13.452;2022-11-20T01:26:22;9.23;;;5.97;;
25331;SDS011;13284;52.748;13.452;2022-11-20T01:28:51;11.77;;;6.20;;
25331;SDS011;13284;52.748;13.452;2022-11-20T01:31:19;8.70;;;5.10;;
25331;SDS011;13284;52.748;13.452;2022-11-20T01:33:46;10.00;;;6.70;;
25331;SDS011;13284;52.748;13.452;2022-11-20T01:36:14;7.93;;;4.90;;
25331;SDS011;13284;52.748;13.452;2022-11-20T01:38:41;9.73;;;5.00;;
25331;SDS011;13284;52.748;13.452;2022-11-20T01:41:07;11.53;;;6.20;;
25331;SDS011;13284;52.748;13.452;2022-11-20T01:43:33;10.50;;;6.93;;
25331;SDS011;13284;52.748;13.452;2022-11-20T01:46:04;9.87;;;6.60;;
25331;SDS011;13284;52.748;13.452;2022-11-20T01:48:38;13.17;;;7.20;;
25331;SDS011;13284;52.748;13.452;2022-11-20T01:51:19;9.27;;;6.40;;
25331;SDS011;13284;52.748;13.452;2022-11-20T01:53:51;10.10;;;6.67;;
25331;SDS011;13284;52.748;13.452;2022-11-20T01:56:19;9.17;;;6.30;;
25331;SDS011;13284;52.748;13.452;2022-11-20T01:58:51;8.70;;;6.67;;
25331;SDS011;13284;52.748;13.452;2022-11-20T02:01:21;9.40;;;6.30;;
25331;SDS011;13284;52.748;13.452;2022-11-20T02:03:47;9.40;;;6.30;;
25331;SDS011;13284;52.748;13.452;2022-11-20T02:08:44;7.53;;;5.20;;
25331;SDS011;13284;52.748;13.452;2022-11-20T02:11:09;15.87;;;7.47;;
25331;SDS011;13284;52.748;13.452;2022-11-20T02:13:37;9.47;;;6.93;;
25331;SDS011;13284;52.748;13.452;2022-11-20T02:16:16;8.93;;;6.87;;
25331;SDS011;13284;52.748;13.452;2022-11-20T02:18:50;11.43;;;7.10;;
25331;SDS011;13284;52.748;13.452;2022-11-20T02:26:20;10.17;;;6.23;;
25331;SDS011;13284;52.748;13.452;2022-11-20T02:28:48;12.80;;;7.00;;
25331;SDS011;13284;52.748;13.452;2022-11-20T02:31:14;12.77;;;7.10;;
25331;SDS011;13284;52.748;13.452;2022-11-20T02:33:40;10.33;;;6.27;;
25331;SDS011;13284;52.748;13.452;2022-11-20T02:36:07;8.17;;;5.70;;
25331;SDS011;13284;52.748;13.452;2022-11-20T02:38:36;12.03;;;7.53;;
25331;SDS011;13284;52.748;13.452;2022-11-20T02:41:02;10.10;;;6.43;;
25331;SDS011;13284;52.748;13.452;2022-11-20T02:43:27;10.67;;;7.27;;
25331;SDS011;13284;52.748;13.452;2022-11-20T02:45:53;9.80;;;6.57;;
25331;SDS011;13284;52.748;13.452;2022-11-20T02:48:18;10.60;;;5.60;;
25331;SDS011;13284;52.748;13.452;2022-11-20T02:50:44;12.30;;;6.40;;
25331;SDS011;13284;52.748;13.452;2022-11-20T02:53:09;9.37;;;6.30;;
25331;SDS011;13284;52.748;13.452;2022-11-20T02:55:35;11.77;;;7.77;;
25331;SDS011;13284;52.748;13.452;2022-11-20T02:58:01;16.40;;;8.17;;
25331;SDS011;13284;52.748;13.452;2022-11-20T03:00:26;16.87;;;9.37;;
25331;SDS011;13284;52.748;13.452;2022-11-20T03:02:52;14.30;;;8.30;;
25331;SDS011;13284;52.748;13.452;2022-11-20T03:05:17;11.60;;;7.83;;
25331;SDS011;13284;52.748;13.452;2022-11-20T03:07:43;12.53;;;6.53;;
25331;SDS011;13284;52.748;13.452;2022-11-20T03:10:09;9.23;;;5.73;;
25331;SDS011;13284;52.748;13.452;2022-11-20T03:12:35;12.60;;;7.30;;
25331;SDS011;13284;52.748;13.452;2022-11-20T03:15:00;10.33;;;7.07;;
25331;SDS011;13284;52.748;13.452;2022-11-20T03:17:26;8.60;;;6.73;;
25331;SDS011;13284;52.748;13.452;2022-11-20T03:19:51;10.77;;;5.73;;
25331;SDS011;13284;52.748;13.452;2022-11-20T03:22:17;12.60;;;6.60;;
25331;SDS011;13284;52.748;13.452;2022-11-20T03:24:42;10.23;;;6.00;;
25331;SDS011;13284;52.748;13.452;2022-11-20T03:27:08;8.43;;;5.60;;
25331;SDS011;13284;52.748;13.452;2022-11-20T03:29:34;9.57;;;6.90;;
25331;SDS011;13284;52.748;13.452;2022-11-20T03:32:00;9.23;;;6.03;;
25331;SDS011;13284;52.748;13.452;2022-11-20T03:34:25;10.20;;;6.67;;
25331;SDS011;13284;52.748;13.452;2022-11-20T03:36:51;10.73;;;7.40;;
25331;SDS011;13284;52.748;13.452;2022-11-20T03:39:16;9.43;;;6.40;;
25331;SDS011;13284;52.748;13.452;2022-11-20T03:41:42;14.30;;;6.50;;
25331;SDS011;13284;52.748;13.452;2022-11-20T03:44:08;12.13;;;7.50;;
25331;SDS011;13284;52.748;13.452;2022-11-20T03:46:36;12.70;;;7.03;;
25331;SDS011;13284;52.748;13.452;2022-11-20T03:49:02;12.40;;;7.63;;
25331;SDS011;13284;52.748;13.452;2022-11-20T03:51:29;12.57;;;6.83;;
25331;SDS011;13284;52.748;13.452;2022-11-20T03:53:57;18.33;;;8.80;;
25331;SDS011;13284;52.748;13.452;2022-11-20T03:56:26;10.60;;;6.20;;
25331;SDS011;13284;52.748;13.452;2022-11-20T03:58:57;9.40;;;5.93;;
25331;SDS011;13284;52.748;13.452;2022-11-20T04:01:24;12.33;;;6.30;;
25331;SDS011;13284;52.748;13.452;2022-11-20T04:03:52;9.77;;;6.13;;
25331;SDS011;13284;52.748;13.452;2022-11-20T04:06:26;12.57;;;6.73;;
25331;SDS011;13284;52.748;13.452;2022-11-20T04:08:53;12.10;;;7.37;;
25331;SDS011;13284;52.748;13.452;2022-11-20T04:11:21;10.87;;;6.63;;
25331;SDS011;13284;52.748;13.452;2022-11-20T04:13:49;9.03;;;6.00;;
25331;SDS011;13284;52.748;13.452;2022-11-20T04:16:17;12.87;;;7.53;;
25331;SDS011;13284;52.748;13.452;2022-11-20T04:18:43;18.70;;;8.70;;
25331;SDS011;13284;52.748;13.452;2022-11-20T04:21:08;15.57;;;8.43;;
25331;SDS011;13284;52.748;13.452;2022-11-20T04:23:34;14.50;;;9.37;;
25331;SDS011;13284;52.748;13.452;2022-11-20T04:26:07;27.20;;;11.83;;
25331;SDS011;13284;52.748;13.452;2022-11-20T04:28:34;34.73;;;14.23;;
25331;SDS011;13284;52.748;13.452;2022-11-20T04:31:01;31.27;;;14.67;;
25331;SDS011;13284;52.748;13.452;2022-11-20T04:33:32;24.30;;;12.43;;
25331;SDS011;13284;52.748;13.452;2022-11-20T04:36:05;25.30;;;11.63;;
25331;SDS011;13284;52.748;13.452;2022-11-20T04:38:32;21.60;;;11.87;;
25331;SDS011;13284;52.748;13.452;2022-11-20T04:40:59;15.37;;;8.83;;
25331;SDS011;13284;52.748;13.452;2022-11-20T04:43:26;18.60;;;10.30;;
25331;SDS011;13284;52.748;13.452;2022-11-20T04:45:52;17.43;;;9.83;;
25331;SDS011;13284;52.748;13.452;2022-11-20T04:48:18;17.87;;;9.13;;
25331;SDS011;13284;52.748;13.452;2022-11-20T04:50:44;22.60;;;10.80;;
25331;SDS011;13284;52.748;13.452;2022-11-20T04:53:09;21.60;;;12.40;;
25331;SDS011;13284;52.748;13.452;2022-11-20T04:55:35;19.50;;;11.07;;
25331;SDS011;13284;52.748;13.452;2022-11-20T04:58:00;21.17;;;11.13;;
25331;SDS011;13284;52.748;13.452;2022-11-20T05:00:26;25.33;;;13.10;;
25331;SDS011;13284;52.748;13.452;2022-11-20T05:02:51;28.73;;;13.20;;
25331;SDS011;13284;52.748;13.452;2022-11-20T05:05:16;24.50;;;14.10;;
25331;SDS011;13284;52.748;13.452;2022-11-20T05:07:42;19.40;;;10.70;;
25331;SDS011;13284;52.748;13.452;2022-11-20T05:10:08;20.83;;;10.47;;
25331;SDS011;13284;52.748;13.452;2022-11-20T05:12:34;13.53;;;7.87;;
25331;SDS011;13284;52.748;13.452;2022-11-20T05:14:59;13.70;;;9.83;;
25331;SDS011;13284;52.748;13.452;2022-11-20T05:17:24;16.93;;;9.73;;
25331;SDS011;13284;52.748;13.452;2022-11-20T05:19:50;19.10;;;11.53;;
25331;SDS011;13284;52.748;13.452;2022-11-20T05:22:15;19.47;;;10.60;;
25331;SDS011;13284;52.748;13.452;2022-11-20T05:24:41;28.47;;;16.37;;
25331;SDS011;13284;52.748;13.452;2022-11-20T05:27:06;23.77;;;11.53;;
25331;SDS011;13284;52.748;13.452;2022-11-20T05:29:32;18.03;;;10.90;;
25331;SDS011;13284;52.748;13.452;2022-11-20T05:31:57;17.57;;;10.20;;
25331;SDS011;13284;52.748;13.452;2022-11-20T05:34:23;17.07;;;10.87;;
25331;SDS011;13284;52.748;13.452;2022-11-20T05:36:48;17.03;;;10.00;;
25331;SDS011;13284;52.748;13.452;2022-11-20T05:39:14;17.20;;;9.27;;
25331;SDS011;13284;52.748;13.452;2022-11-20T05:41:39;19.13;;;9.13;;
25331;SDS011;13284;52.748;13.452;2022-11-20T05:44:05;11.03;;;7.57;;
25331;SDS011;13284;52.748;13.452;2022-11-20T05:46:30;18.20;;;10.17;;
25331;SDS011;13284;52.748;13.452;2022-11-20T05:48:56;16.30;;;9.57;;
25331;SDS011;13284;52.748;13.452;2022-11-20T05:51:23;22.43;;;11.40;;
25331;SDS011;13284;52.748;13.452;2022-11-20T05:53:50;16.03;;;8.83;;
25331;SDS011;13284;52.748;13.452;2022-11-20T05:56:16;21.87;;;10.90;;
25331;SDS011;13284;52.748;13.452;2022-11-20T05:58:43;18.80;;;10.17;;
25331;SDS011;13284;52.748;13.452;2022-11-20T06:01:11;22.30;;;11.10;;
25331;SDS011;13284;52.748;13.452;2022-11-20T06:03:42;17.40;;;10.33;;
25331;SDS011;13284;52.748;13.452;2022-11-20T06:06:11;21.10;;;10.90;;
25331;SDS011;13284;52.748;13.452;2022-11-20T06:08:37;17.13;;;9.47;;
25331;SDS011;13284;52.748;13.452;2022-11-20T06:11:03;22.37;;;11.63;;
25331;SDS011;13284;52.748;13.452;2022-11-20T06:13:30;18.50;;;11.40;;
25331;SDS011;13284;52.748;13.452;2022-11-20T06:15:55;21.23;;;11.80;;
25331;SDS011;13284;52.748;13.452;2022-11-20T06:18:21;30.63;;;13.80;;
25331;SDS011;13284;52.748;13.452;2022-11-20T06:20:46;22.20;;;12.33;;
25331;SDS011;13284;52.748;13.452;2022-11-20T06:23:12;16.77;;;10.33;;
25331;SDS011;13284;52.748;13.452;2022-11-20T06:25:38;16.80;;;8.53;;
25331;SDS011;13284;52.748;13.452;2022-11-20T06:28:05;15.23;;;8.53;;
25331;SDS011;13284;52.748;13.452;2022-11-20T06:30:31;11.23;;;7.10;;
25331;SDS011;13284;52.748;13.452;2022-11-20T06:32:56;16.13;;;8.07;;
25331;SDS011;13284;52.748;13.452;2022-11-20T06:35:22;13.13;;;8.30;;
25331;SDS011;13284;52.748;13.452;2022-11-20T06:37:53;11.53;;;7.93;;
25331;SDS011;13284;52.748;13.452;2022-11-20T06:40:20;11.67;;;6.97;;
25331;SDS011;13284;52.748;13.452;2022-11-20T06:42:45;14.33;;;8.60;;
25331;SDS011;13284;52.748;13.452;2022-11-20T06:45:11;14.40;;;9.00;;
25331;SDS011;13284;52.748;13.452;2022-11-20T06:47:36;15.27;;;8.97;;
25331;SDS011;13284;52.748;13.452;2022-11-20T06:50:02;14.10;;;9.07;;
25331;SDS011;13284;52.748;13.452;2022-11-20T06:52:27;16.07;;;8.60;;
25331;SDS011;13284;52.748;13.452;2022-11-20T06:54:53;17.30;;;9.80;;
25331;SDS011;13284;52.748;13.452;2022-11-20T06:57:18;19.83;;;9.60;;
25331;SDS011;13284;52.748;13.452;2022-11-20T06:59:44;18.60;;;10.87;;
25331;SDS011;13284;52.748;13.452;2022-11-20T07:02:10;19.27;;;11.30;;
25331;SDS011;13284;52.748;13.452;2022-11-20T07:04:36;21.03;;;13.40;;
25331;SDS011;13284;52.748;13.452;2022-11-20T07:07:02;16.50;;;10.73;;
25331;SDS011;13284;52.748;13.452;2022-11-20T07:09:31;13.87;;;9.70;;
25331;SDS011;13284;52.748;13.452;2022-11-20T07:11:57;14.27;;;9.17;;
25331;SDS011;13284;52.748;13.452;2022-11-20T07:14:22;17.00;;;9.90;;
25331;SDS011;13284;52.748;13.452;2022-11-20T07:16:48;13.43;;;8.80;;
25331;SDS011;13284;52.748;13.452;2022-11-20T07:19:14;12.07;;;8.47;;
25331;SDS011;13284;52.748;13.452;2022-11-20T07:21:39;17.17;;;8.93;;
25331;SDS011;13284;52.748;13.452;2022-11-20T07:24:05;12.50;;;7.23;;
25331;SDS011;13284;52.748;13.452;2022-11-20T07:26:30;14.80;;;7.90;;
25331;SDS011;13284;52.748;13.452;2022-11-20T07:28:56;13.57;;;6.73;;
25331;SDS011;13284;52.748;13.452;2022-11-20T07:31:21;13.07;;;7.33;;
25331;SDS011;13284;52.748;13.452;2022-11-20T07:33:47;12.40;;;8.17;;
25331;SDS011;13284;52.748;13.452;2022-11-20T07:36:13;13.60;;;7.40;;
25331;SDS011;13284;52.748;13.452;2022-11-20T07:38:38;13.27;;;8.13;;
25331;SDS011;13284;52.748;13.452;2022-11-20T07:41:04;12.47;;;7.80;;
25331;SDS011;13284;52.748;13.452;2022-11-20T07:43:29;14.90;;;9.50;;
25331;SDS011;13284;52.748;13.452;2022-11-20T07:45:55;14.83;;;9.20;;
25331;SDS011;13284;52.748;13.452;2022-11-20T07:48:22;12.53;;;8.50;;
25331;SDS011;13284;52.748;13.452;2022-11-20T07:50:48;15.00;;;8.23;;
25331;SDS011;13284;52.748;13.452;2022-11-20T07:53:14;13.30;;;7.67;;
25331;SDS011;13284;52.748;13.452;2022-11-20T07:55:45;14.03;;;8.10;;
25331;SDS011;13284;52.748;13.452;2022-11-20T07:58:11;15.87;;;8.70;;
25331;SDS011;13284;52.748;13.452;2022-11-20T08:00:39;12.37;;;7.30;;
25331;SDS011;13284;52.748;13.452;2022-11-20T08:03:05;12.80;;;8.83;;
25331;SDS011;13284;52.748;13.452;2022-11-20T08:05:31;13.33;;;7.70;;
25331;SDS011;13284;52.748;13.452;2022-11-20T08:07:57;10.70;;;6.30;;
25331;SDS011;13284;52.748;13.452;2022-11-20T08:10:23;12.97;;;7.60;;
25331;SDS011;13284;52.748;13.452;2022-11-20T08:12:50;13.67;;;9.30;;
25331;SDS011;13284;52.748;13.452;2022-11-20T08:15:36;13.97;;;7.67;;
25331;SDS011;13284;52.748;13.452;2022-11-20T08:18:03;16.23;;;9.07;;
25331;SDS011;13284;52.748;13.452;2022-11-20T08:20:30;14.03;;;8.17;;
25331;SDS011;13284;52.748;13.452;2022-11-20T08:23:03;14.87;;;9.00;;
25331;SDS011;13284;52.748;13.452;2022-11-20T08:25:33;13.30;;;7.97;;
25331;SDS011;13284;52.748;13.452;2022-11-20T08:28:01;16.90;;;8.80;;
25331;SDS011;13284;52.748;13.452;2022-11-20T08:30:27;17.90;;;9.50;;
25331;SDS011;13284;52.748;13.452;2022-11-20T08:32:53;12.77;;;8.17;;
25331;SDS011;13284;52.748;13.452;2022-11-20T08:35:20;15.33;;;8.40;;
25331;SDS011;13284;52.748;13.452;2022-11-20T08:37:47;15.57;;;8.40;;
25331;SDS011;13284;52.748;13.452;2022-11-20T08:40:13;15.10;;;8.07;;
25331;SDS011;13284;52.748;13.452;2022-11-20T08:42:45;11.97;;;8.20;;
25331;SDS011;13284;52.748;13.452;2022-11-20T08:45:12;15.13;;;8.30;;
25331;SDS011;13284;52.748;13.452;2022-11-20T08:47:38;12.43;;;9.53;;
25331;SDS011;13284;52.748;13.452;2022-11-20T08:50:03;12.30;;;7.60;;
25331;SDS011;13284;52.748;13.452;2022-11-20T08:52:29;14.97;;;8.40;;
25331;SDS011;13284;52.748;13.452;2022-11-20T08:54:54;17.80;;;8.93;;
25331;SDS011;13284;52.748;13.452;2022-11-20T08:57:20;12.30;;;7.47;;
25331;SDS011;13284;52.748;13.452;2022-11-20T08:59:45;13.03;;;8.20;;
25331;SDS011;13284;52.748;13.452;2022-11-20T09:02:11;11.50;;;8.10;;
25331;SDS011;13284;52.748;13.452;2022-11-20T09:04:37;20.33;;;9.77;;
25331;SDS011;13284;52.748;13.452;2022-11-20T09:07:02;14.20;;;7.60;;
25331;SDS011;13284;52.748;13.452;2022-11-20T09:09:28;16.30;;;8.90;;
25331;SDS011;13284;52.748;13.452;2022-11-20T09:11:53;13.13;;;8.47;;
25331;SDS011;13284;52.748;13.452;2022-11-20T09:14:19;16.57;;;8.87;;
25331;SDS011;13284;52.748;13.452;2022-11-20T09:16:45;16.10;;;9.47;;
25331;SDS011;13284;52.748;13.452;2022-11-20T09:19:11;14.53;;;8.23;;
25331;SDS011;13284;52.748;13.452;2022-11-20T09:21:37;14.87;;;9.20;;
25331;SDS011;13284;52.748;13.452;2022-11-20T09:24:02;11.97;;;7.63;;
25331;SDS011;13284;52.748;13.452;2022-11-20T09:26:29;13.80;;;9.10;;
25331;SDS011;13284;52.748;13.452;2022-11-20T09:28:54;16.47;;;10.10;;
25331;SDS011;13284;52.748;13.452;2022-11-20T09:31:24;13.83;;;8.53;;
25331;SDS011;13284;52.748;13.452;2022-11-20T09:33:51;13.47;;;7.37;;
25331;SDS011;13284;52.748;13.452;2022-11-20T09:36:16;13.70;;;8.90;;
25331;SDS011;13284;52.748;13.452;2022-11-20T09:38:43;13.20;;;9.43;;
25331;SDS011;13284;52.748;13.452;2022-11-20T09:41:15;15.33;;;9.27;;
25331;SDS011;13284;52.748;13.452;2022-11-20T09:46:40;13.20;;;9.27;;
25331;SDS011;13284;52.748;13.452;2022-11-20T09:55:03;14.33;;;9.73;;
25331;SDS011;13284;52.748;13.452;2022-11-20T09:57:39;13.60;;;8.80;;
25331;SDS011;13284;52.748;13.452;2022-11-20T10:00:09;15.50;;;9.40;;
25331;SDS011;13284;52.748;13.452;2022-11-20T10:02:40;14.90;;;10.73;;
25331;SDS011;13284;52.748;13.452;2022-11-20T10:05:12;16.90;;;8.90;;
25331;SDS011;13284;52.748;13.452;2022-11-20T10:10:58;16.13;;;8.50;;
25331;SDS011;13284;52.748;13.452;2022-11-20T10:15:46;12.30;;;8.13;;
25331;SDS011;13284;52.748;13.452;2022-11-20T10:31:41;12.30;;;7.90;;
25331;SDS011;13284;52.748;13.452;2022-11-20T10:36:49;12.40;;;7.63;;
25331;SDS011;13284;52.748;13.452;2022-11-20T10:39:22;11.97;;;6.73;;
25331;SDS011;13284;52.748;13.452;2022-11-20T10:42:00;10.30;;;6.37;;
25331;SDS011;13284;52.748;13.452;2022-11-20T10:44:27;20.03;;;7.50;;
25331;SDS011;13284;52.748;13.452;2022-11-20T10:47:16;12.57;;;6.90;;
25331;SDS011;13284;52.748;13.452;2022-11-20T10:49:43;12.40;;;7.93;;
25331;SDS011;13284;52.748;13.452;2022-11-20T10:55:06;13.10;;;8.40;;
25331;SDS011;13284;52.748;13.452;2022-11-20T10:57:52;14.40;;;7.80;;
25331;SDS011;13284;52.748;13.452;2022-11-20T11:00:30;12.43;;;8.00;;
25331;SDS011;13284;52.748;13.452;2022-11-20T11:02:56;8.97;;;5.60;;
25331;SDS011;13284;52.748;13.452;2022-11-20T11:08:32;14.33;;;7.70;;
25331;SDS011;13284;52.748;13.452;2022-11-20T11:11:02;13.10;;;7.57;;
25331;SDS011;13284;52.748;13.452;2022-11-20T11:13:45;15.83;;;8.30;;
25331;SDS011;13284;52.748;13.452;2022-11-20T11:16:21;11.03;;;6.53;;
25331;SDS011;13284;52.748;13.452;2022-11-20T11:18:49;11.40;;;7.30;;
25331;SDS011;13284;52.748;13.452;2022-11-20T11:21:20;11.20;;;7.13;;
25331;SDS011;13284;52.748;13.452;2022-11-20T11:23:57;13.73;;;7.47;;
25331;SDS011;13284;52.748;13.452;2022-11-20T11:26:27;14.40;;;7.93;;
25331;SDS011;13284;52.748;13.452;2022-11-20T11:31:24;12.90;;;8.77;;
25331;SDS011;13284;52.748;13.452;2022-11-20T11:33:51;15.80;;;8.83;;
25331;SDS011;13284;52.748;13.452;2022-11-20T11:36:18;11.03;;;8.90;;
25331;SDS011;13284;52.748;13.452;2022-11-20T11:38:48;9.30;;;6.37;;
25331;SDS011;13284;52.748;13.452;2022-11-20T11:41:19;13.57;;;7.47;;
25331;SDS011;13284;52.748;13.452;2022-11-20T11:43:54;9.20;;;6.30;;
25331;SDS011;13284;52.748;13.452;2022-11-20T11:46:44;13.60;;;6.83;;
25331;SDS011;13284;52.748;13.452;2022-11-20T11:49:18;9.50;;;6.07;;
25331;SDS011;13284;52.748;13.452;2022-11-20T12:00:20;11.30;;;6.70;;
25331;SDS011;13284;52.748;13.452;2022-11-20T12:05:28;12.30;;;7.10;;
25331;SDS011;13284;52.748;13.452;2022-11-20T12:11:06;11.40;;;6.27;;
25331;SDS011;13284;52.748;13.452;2022-11-20T12:13:58;12.40;;;6.30;;
25331;SDS011;13284;52.748;13.452;2022-11-20T12:16:49;10.60;;;6.97;;
25331;SDS011;13284;52.748;13.452;2022-11-20T12:19:15;14.50;;;7.50;;
25331;SDS011;13284;52.748;13.452;2022-11-20T12:24:50;12.00;;;5.63;;
25331;SDS011;13284;52.748;13.452;2022-11-20T12:27:26;11.10;;;6.73;;
25331;SDS011;13284;52.748;13.452;2022-11-20T12:32:30;8.03;;;6.30;;
25331;SDS011;13284;52.748;13.452;2022-11-20T12:43:20;10.63;;;7.77;;
25331;SDS011;13284;52.748;13.452;2022-11-20T12:52:17;9.83;;;6.40;;
25331;SDS011;13284;52.748;13.452;2022-11-20T12:55:01;11.43;;;6.20;;
25331;SDS011;13284;52.748;13.452;2022-11-20T12:57:29;11.40;;;6.73;;
25331;SDS011;13284;52.748;13.452;2022-11-20T13:08:28;12.80;;;7.13;;
25331;SDS011;13284;52.748;13.452;2022-11-20T13:13:34;9.60;;;6.00;;
25331;SDS011;13284;52.748;13.452;2022-11-20T13:16:29;12.73;;;6.57;;
25331;SDS011;13284;52.748;13.452;2022-11-20T13:19:09;11.43;;;7.20;;
25331;SDS011;13284;52.748;13.452;2022-11-20T13:21:41;12.60;;;6.50;;
25331;SDS011;13284;52.748;13.452;2022-11-20T13:26:48;13.20;;;6.70;;
25331;SDS011;13284;52.748;13.452;2022-11-20T13:29:33;9.87;;;7.23;;
25331;SDS011;13284;52.748;13.452;2022-11-20T13:34:30;10.53;;;7.40;;
25331;SDS011;13284;52.748;13.452;2022-11-20T13:36:56;14.50;;;7.47;;
25331;SDS011;13284;52.748;13.452;2022-11-20T13:39:24;9.43;;;7.00;;
25331;SDS011;13284;52.748;13.452;2022-11-20T13:41:57;10.07;;;6.60;;
25331;SDS011;13284;52.748;13.452;2022-11-20T13:44:47;11.90;;;7.37;;
25331;SDS011;13284;52.748;13.452;2022-11-20T13:47:36;13.37;;;7.47;;
25331;SDS011;13284;52.748;13.452;2022-11-20T13:50:03;11.60;;;6.30;;
25331;SDS011;13284;52.748;13.452;2022-11-20T13:58:11;11.80;;;7.17;;
25331;SDS011;13284;52.748;13.452;2022-11-20T14:00:57;13.80;;;7.03;;
25331;SDS011;13284;52.748;13.452;2022-11-20T14:03:28;13.53;;;7.40;;
25331;SDS011;13284;52.748;13.452;2022-11-20T14:05:55;10.57;;;7.37;;
25331;SDS011;13284;52.748;13.452;2022-11-20T14:08:32;10.80;;;6.10;;
25331;SDS011;13284;52.748;13.452;2022-11-20T14:11:14;10.53;;;7.43;;
25331;SDS011;13284;52.748;13.452;2022-11-20T14:14:46;12.10;;;6.90;;
25331;SDS011;13284;52.748;13.452;2022-11-20T14:16:42;11.87;;;7.50;;
25331;SDS011;13284;52.748;13.452;2022-11-20T14:21:47;12.20;;;7.40;;
25331;SDS011;13284;52.748;13.452;2022-11-20T14:24:13;12.20;;;7.60;;
25331;SDS011;13284;52.748;13.452;2022-11-20T14:26:43;13.27;;;7.87;;
25331;SDS011;13284;52.748;13.452;2022-11-20T14:29:14;8.10;;;6.33;;
25331;SDS011;13284;52.748;13.452;2022-11-20T14:31:42;13.30;;;6.70;;
25331;SDS011;13284;52.748;13.452;2022-11-20T14:34:15;9.27;;;6.73;;
25331;SDS011;13284;52.748;13.452;2022-11-20T14:36:43;11.70;;;6.13;;
25331;SDS011;13284;52.748;13.452;2022-11-20T14:39:22;13.10;;;6.73;;
25331;SDS011;13284;52.748;13.452;2022-11-20T14:41:54;10.37;;;6.97;;
25331;SDS011;13284;52.748;13.452;2022-11-20T14:44:20;14.10;;;7.50;;
25331;SDS011;13284;52.748;13.452;2022-11-20T14:46:51;13.00;;;6.70;;
25331;SDS011;13284;52.748;13.452;2022-11-20T14:49:17;11.27;;;5.60;;
25331;SDS011;13284;52.748;13.452;2022-11-20T14:51:43;13.00;;;7.00;;
25331;SDS011;13284;52.748;13.452;2022-11-20T14:56:39;10.90;;;6.63;;
25331;SDS011;13284;52.748;13.452;2022-11-20T14:59:05;10.67;;;6.20;;
25331;SDS011;13284;52.748;13.452;2022-11-20T15:01:32;8.30;;;5.97;;
25331;SDS011;13284;52.748;13.452;2022-11-20T15:04:32;12.47;;;7.07;;
25331;SDS011;13284;52.748;13.452;2022-11-20T15:06:52;9.77;;;5.93;;
25331;SDS011;13284;52.748;13.452;2022-11-20T15:09:19;14.33;;;7.10;;
25331;SDS011;13284;52.748;13.452;2022-11-20T15:11:58;11.87;;;6.83;;
25331;SDS011;13284;52.748;13.452;2022-11-20T15:14:27;12.03;;;7.00;;
25331;SDS011;13284;52.748;13.452;2022-11-20T15:16:54;8.60;;;5.80;;
25331;SDS011;13284;52.748;13.452;2022-11-20T15:19:20;10.47;;;6.20;;
25331;SDS011;13284;52.748;13.452;2022-11-20T15:21:48;10.80;;;6.47;;
25331;SDS011;13284;52.748;13.452;2022-11-20T15:24:14;11.67;;;6.20;;
25331;SDS011;13284;52.748;13.452;2022-11-20T15:26:40;11.40;;;6.47;;
25331;SDS011;13284;52.748;13.452;2022-11-20T15:29:09;12.67;;;7.10;;
25331;SDS011;13284;52.748;13.452;2022-11-20T15:31:39;10.90;;;6.07;;
25331;SDS011;13284;52.748;13.452;2022-11-20T15:34:10;9.53;;;6.27;;
25331;SDS011;13284;52.748;13.452;2022-11-20T15:36:38;12.93;;;7.07;;
25331;SDS011;13284;52.748;13.452;2022-11-20T15:39:04;10.93;;;7.00;;
25331;SDS011;13284;52.748;13.452;2022-11-20T15:41:31;12.03;;;6.60;;
25331;SDS011;13284;52.748;13.452;2022-11-20T15:43:57;12.77;;;7.43;;
25331;SDS011;13284;52.748;13.452;2022-11-20T15:46:25;14.20;;;7.97;;
25331;SDS011;13284;52.748;13.452;2022-11-20T15:48:56;11.40;;;7.10;;
25331;SDS011;13284;52.748;13.452;2022-11-20T15:51:30;14.97;;;7.20;;
25331;SDS011;13284;52.748;13.452;2022-11-20T15:54:01;12.17;;;7.10;;
25331;SDS011;13284;52.748;13.452;2022-11-20T15:56:33;8.53;;;5.80;;
25331;SDS011;13284;52.748;13.452;2022-11-20T15:58:59;13.50;;;7.20;;
25331;SDS011;13284;52.748;13.452;2022-11-20T16:01:24;10.20;;;7.10;;
25331;SDS011;13284;52.748;13.452;2022-11-20T16:03:50;8.87;;;6.50;;
25331;SDS011;13284;52.748;13.452;2022-11-20T16:06:16;12.77;;;7.30;;
25331;SDS011;13284;52.748;13.452;2022-11-20T16:08:41;11.87;;;6.43;;
25331;SDS011;13284;52.748;13.452;2022-11-20T16:11:07;15.23;;;7.47;;
25331;SDS011;13284;52.748;13.452;2022-11-20T16:13:37;11.23;;;7.60;;
25331;SDS011;13284;52.748;13.452;2022-11-20T16:16:36;7.97;;;6.13;;
25331;SDS011;13284;52.748;13.452;2022-11-20T16:19:04;9.83;;;7.00;;